Time;durP1;ratioP1;P1;durP2;ratioP2;P2;SDS_P1;SDS_P2;PMS_P1;PMS_P2;Temp;Humidity;BMP_temperature;BMP_pressure;BME280_temperature;BME280_humidity;BME280_pressure;Samples;Min_cycle;Max_cycle;Signal;HPM_P1;HPM_P2
2022/01/17 00:06:30;;;;;;;24.38;15.95;;;;;;;;;;20924410;28;20059;-64
2022/01/17 00:16:41;;;;;;;24.27;15.07;;;;;;;;;;20925214;28;20073;-62
2022/01/17 00:26:44;;;;;;;22.85;15.40;;;;;;;;;;20923232;28;20053;-66
2022/01/17 00:36:46;;;;;;;24.75;16.63;;;;;;;;;;20922550;28;20553;-63
2022/01/17 00:46:48;;;;;;;28.27;16.67;;;;;;;;;;20922591;28;20049;-62
2022/01/17 00:56:50;;;;;;;27.27;16.85;;;;;;;;;;20920957;28;20063;-62
2022/01/17 01:06:52;;;;;;;28.23;16.95;;;;;;;;;;20918437;28;20434;-62
2022/01/17 01:16:56;;;;;;;28.42;16.73;;;;;;;;;;20918877;28;20596;-61
2022/01/17 01:27:41;;;;;;;25.05;15.77;;;;;;;;;;20918311;28;20102;-62
2022/01/17 01:37:23;;;;;;;30.38;16.63;;;;;;;;;;20918048;28;20533;-62
2022/01/17 01:47:26;;;;;;;22.88;14.75;;;;;;;;;;20916959;28;20071;-61
2022/01/17 01:57:28;;;;;;;22.67;15.00;;;;;;;;;;20919462;28;20056;-62
2022/01/17 02:07:29;;;;;;;27.92;16.98;;;;;;;;;;20915514;28;20128;-61
2022/01/17 02:17:34;;;;;;;24.30;15.55;;;;;;;;;;20914209;28;20138;-62
2022/01/17 02:27:36;;;;;;;29.17;16.98;;;;;;;;;;20913951;28;20140;-62
2022/01/17 02:37:38;;;;;;;24.70;15.57;;;;;;;;;;20912956;28;20045;-63
2022/01/17 02:47:39;;;;;;;27.58;16.45;;;;;;;;;;20912602;28;20053;-62
2022/01/17 02:57:42;;;;;;;24.88;16.83;;;;;;;;;;20912422;28;20570;-62
2022/01/17 03:07:44;;;;;;;22.73;14.90;;;;;;;;;;20912227;28;20096;-63
2022/01/17 03:17:46;;;;;;;22.33;15.35;;;;;;;;;;20911605;28;20049;-62
2022/01/17 03:27:48;;;;;;;24.88;15.57;;;;;;;;;;20911948;28;20132;-62
2022/01/17 03:37:50;;;;;;;26.83;15.88;;;;;;;;;;20926057;28;20053;-62
2022/01/17 03:47:52;;;;;;;24.23;14.88;;;;;;;;;;20926453;28;20048;-61
2022/01/17 03:57:54;;;;;;;21.77;14.85;;;;;;;;;;20924691;28;20057;-61
2022/01/17 04:07:56;;;;;;;23.33;15.35;;;;;;;;;;20924431;28;20085;-61
2022/01/17 04:18:23;;;;;;;23.90;15.50;;;;;;;;;;20924795;28;20072;-62
2022/01/17 04:28:44;;;;;;;26.50;15.80;;;;;;;;;;20922618;28;20432;-62
2022/01/17 04:39:06;;;;;;;27.67;15.93;;;;;;;;;;20922781;28;20049;-62
2022/01/17 04:49:26;;;;;;;22.90;14.82;;;;;;;;;;20930090;28;20086;-63
2022/01/17 04:59:32;;;;;;;26.60;14.63;;;;;;;;;;20919781;28;20132;-63
2022/01/17 05:09:53;;;;;;;21.67;14.48;;;;;;;;;;20919663;28;20049;-63
2022/01/17 05:20:15;;;;;;;23.80;15.57;;;;;;;;;;20919569;28;20049;-63
2022/01/17 05:30:29;;;;;;;21.23;13.10;;;;;;;;;;20917329;28;20094;-63
2022/01/17 05:40:35;;;;;;;22.15;12.80;;;;;;;;;;20916654;28;20045;-64
2022/01/17 05:50:37;;;;;;;20.83;12.68;;;;;;;;;;20916384;28;20088;-63
2022/01/17 06:00:40;;;;;;;20.13;11.88;;;;;;;;;;20915648;28;20041;-66
2022/01/17 06:10:44;;;;;;;27.45;15.80;;;;;;;;;;20914796;28;20060;-64
2022/01/17 06:20:46;;;;;;;23.42;13.48;;;;;;;;;;20913830;28;20053;-64
2022/01/17 06:30:50;;;;;;;20.17;13.82;;;;;;;;;;20914339;28;20465;-64
2022/01/17 06:40:56;;;;;;;22.92;12.60;;;;;;;;;;20914339;28;20110;-62
2022/01/17 06:51:17;;;;;;;21.63;13.00;;;;;;;;;;20911533;28;20049;-63
2022/01/17 07:01:28;;;;;;;21.98;13.13;;;;;;;;;;20912150;28;20045;-63
2022/01/17 07:11:38;;;;;;;19.45;11.90;;;;;;;;;;20927698;28;20520;-63
2022/01/17 07:21:43;;;;;;;19.83;12.65;;;;;;;;;;20926668;28;20421;-63
2022/01/17 07:31:46;;;;;;;25.47;16.20;;;;;;;;;;20926704;28;20061;-63
2022/01/17 07:41:48;;;;;;;22.33;12.55;;;;;;;;;;20925699;28;20445;-63
2022/01/17 07:52:03;;;;;;;19.52;12.68;;;;;;;;;;20926182;28;20052;-63
2022/01/17 08:02:07;;;;;;;20.53;12.53;;;;;;;;;;20924620;28;20041;-62
2022/01/17 08:12:10;;;;;;;35.80;19.55;;;;;;;;;;20923522;28;20477;-63
2022/01/17 08:22:12;;;;;;;21.58;13.98;;;;;;;;;;20922604;28;20512;-63
2022/01/17 08:32:15;;;;;;;19.58;12.93;;;;;;;;;;20922443;28;20053;-64
2022/01/17 08:42:16;;;;;;;33.87;17.60;;;;;;;;;;20919465;28;20045;-63
2022/01/17 08:52:20;;;;;;;23.85;13.15;;;;;;;;;;20920339;28;20071;-63
2022/01/17 09:02:22;;;;;;;25.35;14.30;;;;;;;;;;20920210;28;20045;-63
2022/01/17 09:12:24;;;;;;;21.00;13.60;;;;;;;;;;20919008;28;20048;-63
2022/01/17 09:22:29;;;;;;;22.95;12.82;;;;;;;;;;20919195;28;20045;-62
2022/01/17 09:32:30;;;;;;;24.88;13.65;;;;;;;;;;20916810;28;20389;-60
2022/01/17 09:42:36;;;;;;;29.95;15.95;;;;;;;;;;20916166;28;20489;-61
2022/01/17 09:52:41;;;;;;;25.10;15.07;;;;;;;;;;20915692;28;20132;-61
2022/01/17 10:02:44;;;;;;;21.67;12.23;;;;;;;;;;20914885;28;20041;-61
2022/01/17 10:12:46;;;;;;;23.77;12.45;;;;;;;;;;20913939;28;20049;-61
2022/01/17 10:23:09;;;;;;;16.00;6.57;;;;;;;;;;20907759;28;20059;-56
2022/01/17 10:43:20;;;;;;;18.85;12.20;;;;;;;;;;20899525;28;20059;-60
2022/01/17 10:53:23;;;;;;;20.30;11.15;;;;;;;;;;20870174;28;20131;-59
2022/01/17 11:03:33;;;;;;;22.80;12.05;;;;;;;;;;20898605;28;20114;-71
2022/01/17 11:13:38;;;;;;;18.67;9.95;;;;;;;;;;20910554;28;20056;-61
2022/01/17 11:23:43;;;;;;;17.93;8.73;;;;;;;;;;20919140;28;20041;-60
2022/01/17 11:33:46;;;;;;;12.05;8.00;;;;;;;;;;20915287;28;20087;-52
2022/01/17 11:43:58;;;;;;;17.45;9.15;;;;;;;;;;20911015;28;20128;-69
2022/01/17 11:54:08;;;;;;;15.38;9.60;;;;;;;;;;20894971;28;20502;-61
2022/01/17 12:04:10;;;;;;;14.23;9.88;;;;;;;;;;20924573;28;20080;-64
2022/01/17 12:14:22;;;;;;;19.67;11.85;;;;;;;;;;20923689;28;20481;-69
2022/01/17 12:24:26;;;;;;;17.65;11.13;;;;;;;;;;20922953;28;20045;-69
2022/01/17 12:34:28;;;;;;;108.82;27.98;;;;;;;;;;20924128;28;20499;-62
2022/01/17 12:44:31;;;;;;;15.70;9.43;;;;;;;;;;20921412;28;20124;-65
2022/01/17 12:54:33;;;;;;;12.73;8.40;;;;;;;;;;20918764;28;20080;-58
2022/01/17 13:04:35;;;;;;;13.23;6.70;;;;;;;;;;20855363;28;20195;-61
2022/01/17 13:14:37;;;;;;;10.73;7.32;;;;;;;;;;20839229;28;20053;-68
2022/01/17 13:24:43;;;;;;;10.85;7.22;;;;;;;;;;20834892;28;20049;-66
2022/01/17 13:34:48;;;;;;;11.60;6.88;;;;;;;;;;20833607;28;20053;-68
2022/01/17 13:44:51;;;;;;;14.45;6.57;;;;;;;;;;20832484;28;20077;-70
2022/01/17 13:54:54;;;;;;;11.85;7.25;;;;;;;;;;20831747;28;20093;-70
2022/01/17 14:04:56;;;;;;;14.07;7.60;;;;;;;;;;20831541;28;20099;-70
2022/01/17 14:14:58;;;;;;;12.43;8.18;;;;;;;;;;20831119;28;20061;-68
2022/01/17 14:25:00;;;;;;;16.73;8.00;;;;;;;;;;20830763;28;20060;-67
2022/01/17 14:35:08;;;;;;;12.23;7.60;;;;;;;;;;20830186;28;20535;-65
2022/01/17 14:45:14;;;;;;;12.27;8.00;;;;;;;;;;20829583;28;20068;-65
2022/01/17 15:05:19;;;;;;;13.82;8.40;;;;;;;;;;20829198;28;20512;-68
2022/01/17 15:15:22;;;;;;;10.18;6.80;;;;;;;;;;20830319;28;20579;-65
2022/01/17 15:25:24;;;;;;;15.40;7.97;;;;;;;;;;20830945;28;20045;-69
2022/01/17 15:35:28;;;;;;;15.88;6.30;;;;;;;;;;20844808;28;20056;-65
2022/01/17 15:45:30;;;;;;;12.98;7.47;;;;;;;;;;20843203;28;20053;-60
2022/01/17 15:55:32;;;;;;;13.45;7.05;;;;;;;;;;20842106;28;20056;-63
2022/01/17 16:05:34;;;;;;;10.65;6.15;;;;;;;;;;20839276;28;20053;-56
2022/01/17 16:15:36;;;;;;;12.38;6.40;;;;;;;;;;20840326;28;20071;-60
2022/01/17 16:25:39;;;;;;;13.85;6.50;;;;;;;;;;20838992;28;20052;-69
2022/01/17 16:35:41;;;;;;;12.30;7.43;;;;;;;;;;20838473;28;20457;-60
2022/01/17 16:45:44;;;;;;;17.20;6.78;;;;;;;;;;20838498;28;20102;-66
2022/01/17 16:55:46;;;;;;;13.63;6.45;;;;;;;;;;20836733;28;20064;-58
2022/01/17 17:05:47;;;;;;;11.70;6.07;;;;;;;;;;20837296;28;20448;-58
2022/01/17 17:15:49;;;;;;;12.65;7.50;;;;;;;;;;20836865;28;20222;-59
2022/01/17 17:25:51;;;;;;;17.15;9.10;;;;;;;;;;20835838;28;20045;-62
2022/01/17 17:35:53;;;;;;;16.95;8.10;;;;;;;;;;20833842;28;20057;-57
2022/01/17 17:45:55;;;;;;;28.08;9.25;;;;;;;;;;20832939;28;20108;-64
2022/01/17 17:55:57;;;;;;;29.05;12.30;;;;;;;;;;20832256;28;20498;-65
2022/01/17 18:05:59;;;;;;;29.23;14.73;;;;;;;;;;20833504;28;20521;-65
2022/01/17 18:16:01;;;;;;;21.95;11.93;;;;;;;;;;20831498;28;20050;-58
2022/01/17 18:26:03;;;;;;;25.13;11.63;;;;;;;;;;20830779;28;20057;-59
2022/01/17 18:36:09;;;;;;;21.25;10.65;;;;;;;;;;20830986;28;20531;-59
2022/01/17 18:46:11;;;;;;;23.90;12.35;;;;;;;;;;20829431;28;20064;-58
2022/01/17 18:56:13;;;;;;;27.58;13.95;;;;;;;;;;20829211;28;20056;-61
2022/01/17 19:06:16;;;;;;;46.55;23.05;;;;;;;;;;20842491;28;20046;-60
2022/01/17 19:16:18;;;;;;;25.27;12.25;;;;;;;;;;20842858;28;20516;-62
2022/01/17 19:26:20;;;;;;;21.48;12.27;;;;;;;;;;20843688;28;20136;-59
2022/01/17 19:36:21;;;;;;;20.95;11.73;;;;;;;;;;20841674;28;20060;-60
2022/01/17 19:46:25;;;;;;;19.20;11.20;;;;;;;;;;20840822;28;20156;-60
2022/01/17 19:56:26;;;;;;;18.85;10.68;;;;;;;;;;20840018;28;20464;-60
2022/01/17 20:06:28;;;;;;;20.58;9.45;;;;;;;;;;20840519;28;20045;-60
2022/01/17 20:16:31;;;;;;;18.45;9.38;;;;;;;;;;20837378;28;20157;-59
2022/01/17 20:26:33;;;;;;;13.93;8.50;;;;;;;;;;20839794;28;20382;-59
2022/01/17 20:36:35;;;;;;;21.42;10.90;;;;;;;;;;20837289;28;20046;-60
2022/01/17 20:46:37;;;;;;;22.35;12.73;;;;;;;;;;20835335;28;20064;-57
2022/01/17 20:56:39;;;;;;;15.10;9.48;;;;;;;;;;20883655;28;20501;-58
2022/01/17 21:06:41;;;;;;;22.25;12.02;;;;;;;;;;20916934;28;20048;-61
2022/01/17 21:16:43;;;;;;;36.17;17.65;;;;;;;;;;20917036;28;20106;-60
2022/01/17 21:26:44;;;;;;;18.05;9.55;;;;;;;;;;20918240;28;20048;-65
2022/01/17 21:36:50;;;;;;;19.83;10.30;;;;;;;;;;20917501;28;20045;-60
2022/01/17 21:46:54;;;;;;;;;;;;;;;;;;20917144;28;20057;-63
2022/01/17 21:56:56;;;;;;;16.33;9.00;;;;;;;;;;20916475;28;20000;-60
2022/01/17 22:06:58;;;;;;;17.08;9.20;;;;;;;;;;20916341;28;20079;-61
2022/01/17 22:17:00;;;;;;;15.50;9.30;;;;;;;;;;20915720;28;20497;-58
2022/01/17 22:27:02;;;;;;;20.65;12.38;;;;;;;;;;20915322;28;20048;-64
2022/01/17 22:37:05;;;;;;;23.65;13.27;;;;;;;;;;20913105;28;20053;-62
2022/01/17 22:47:08;;;;;;;21.00;12.02;;;;;;;;;;20913459;28;20390;-61
2022/01/17 22:57:09;;;;;;;14.23;9.20;;;;;;;;;;20912691;28;20064;-60
2022/01/17 23:07:12;;;;;;;17.02;9.50;;;;;;;;;;20911963;28;20049;-58
2022/01/17 23:17:19;;;;;;;14.35;9.05;;;;;;;;;;20911730;28;20045;-60
2022/01/17 23:27:21;;;;;;;16.08;8.77;;;;;;;;;;20911076;28;20059;-59
2022/01/17 23:37:23;;;;;;;15.65;8.88;;;;;;;;;;20910855;28;20064;-60
2022/01/17 23:47:28;;;;;;;16.65;10.30;;;;;;;;;;20913552;28;20049;-59
